Time;durP1;ratioP1;P1;durP2;ratioP2;P2;SDS_P1;SDS_P2;PMS_P1;PMS_P2;Temp;Humidity;BMP_temperature;BMP_pressure;BME280_temperature;BME280_humidity;BME280_pressure;Samples;Min_cycle;Max_cycle;Signal;HPM_P1;HPM_P2
2023/01/02 00:00:37;;;;;;;75.40;39.33;;;10.60;82.50;;;;;;5072896;28;20028;-16
2023/01/02 00:03:03;;;;;;;64.43;36.88;;;10.60;82.50;;;;;;5072659;28;20073;-16
2023/01/02 00:05:29;;;;;;;75.68;39.10;;;10.50;82.50;;;;;;5072930;28;20029;-16
2023/01/02 00:07:55;;;;;;;58.35;35.83;;;10.50;82.50;;;;;;5072792;28;20162;-15
2023/01/02 00:10:20;;;;;;;66.93;39.13;;;10.50;82.60;;;;;;5072759;28;20031;-17
2023/01/02 00:12:47;;;;;;;77.53;42.03;;;10.50;82.70;;;;;;5073033;28;20023;-16
2023/01/02 00:15:12;;;;;;;80.25;43.67;;;10.50;82.60;;;;;;5072723;28;20461;-16
2023/01/02 00:17:38;;;;;;;78.45;42.97;;;10.50;82.60;;;;;;5073103;28;20048;-16
2023/01/02 00:20:05;;;;;;;66.80;38.25;;;10.40;82.60;;;;;;5072615;28;20028;-16
2023/01/02 00:22:31;;;;;;;72.40;41.65;;;10.40;82.70;;;;;;5072700;28;20028;-16
2023/01/02 00:24:57;;;;;;;63.40;39.28;;;10.40;82.80;;;;;;5072330;28;20036;-16
2023/01/02 00:27:22;;;;;;;68.70;38.67;;;10.40;82.90;;;;;;5072159;28;20052;-15
2023/01/02 00:29:48;;;;;;;62.90;38.58;;;10.40;83.00;;;;;;5072679;28;20063;-17
2023/01/02 00:32:14;;;;;;;63.30;38.47;;;10.40;83.10;;;;;;5072896;28;20036;-17
2023/01/02 00:34:40;;;;;;;66.68;39.40;;;10.40;83.10;;;;;;5071059;28;20033;-14
2023/01/02 00:37:06;;;;;;;62.33;37.65;;;10.40;83.10;;;;;;5071961;28;20040;-17
2023/01/02 00:39:33;;;;;;;67.25;39.30;;;10.40;83.20;;;;;;5072594;28;20051;-15
2023/01/02 00:41:59;;;;;;;61.05;35.85;;;10.50;83.20;;;;;;5072430;28;20032;-15
2023/01/02 00:44:31;;;;;;;69.38;38.35;;;10.50;83.10;;;;;;5071082;28;20032;-16
2023/01/02 00:46:57;;;;;;;67.60;39.17;;;10.50;83.10;;;;;;5072116;28;20044;-15
2023/01/02 00:49:23;;;;;;;56.95;36.97;;;10.50;83.00;;;;;;5072593;28;20060;-16
2023/01/02 00:51:49;;;;;;;77.38;43.05;;;10.50;83.00;;;;;;5072758;28;20510;-16
2023/01/02 00:54:14;;;;;;;66.38;39.15;;;10.50;83.00;;;;;;5070838;28;20025;-16
2023/01/02 00:56:40;;;;;;;79.82;44.20;;;10.50;83.00;;;;;;5072224;28;20408;-16
2023/01/02 00:59:06;;;;;;;66.95;38.38;;;10.60;82.90;;;;;;5072974;28;20036;-14
2023/01/02 01:01:32;;;;;;;58.17;35.92;;;10.50;82.90;;;;;;5072208;28;20434;-14
2023/01/02 01:03:59;;;;;;;71.55;40.78;;;10.60;82.90;;;;;;5072095;28;20024;-15
2023/01/02 01:06:26;;;;;;;59.00;38.65;;;10.60;82.90;;;;;;5072490;28;20020;-16
2023/01/02 01:08:52;;;;;;;74.53;44.22;;;10.60;82.80;;;;;;5071786;28;20121;-17
2023/01/02 01:11:18;;;;;;;66.88;40.75;;;10.60;82.90;;;;;;5072535;28;20219;-16
2023/01/02 01:13:44;;;;;;;77.88;44.72;;;10.60;82.90;;;;;;5072083;28;20021;-16
2023/01/02 01:16:15;;;;;;;67.30;41.00;;;10.60;82.90;;;;;;5072198;28;20031;-14
2023/01/02 01:18:42;;;;;;;60.33;37.70;;;10.60;82.90;;;;;;5072340;28;20119;-16
2023/01/02 01:21:15;;;;;;;62.85;40.25;;;10.60;82.90;;;;;;5072002;28;20056;-15
2023/01/02 01:23:41;;;;;;;76.80;44.13;;;10.60;82.90;;;;;;5072203;28;20036;-17
2023/01/02 01:26:10;;;;;;;80.47;45.80;;;10.60;83.00;;;;;;5072126;28;20024;-16
2023/01/02 01:28:36;;;;;;;66.97;42.00;;;10.60;83.00;;;;;;5072358;28;20039;-14
2023/01/02 01:31:07;;;;;;;66.32;41.97;;;10.60;82.90;;;;;;5071674;28;20032;-16
2023/01/02 01:33:33;;;;;;;63.10;38.67;;;10.60;82.90;;;;;;5071790;28;20037;-16
2023/01/02 01:36:05;;;;;;;70.20;42.47;;;10.60;82.90;;;;;;5071591;28;20564;-14
2023/01/02 01:38:32;;;;;;;83.45;46.75;;;10.50;83.00;;;;;;5070275;28;20119;-16
2023/01/02 01:40:58;;;;;;;81.63;45.83;;;10.50;83.00;;;;;;5054581;28;20055;-16
2023/01/02 01:43:50;;;;;;;66.63;41.65;;;10.40;83.00;;;;;;5055453;28;20025;-16
2023/01/02 01:46:40;;;;;;;53.33;32.83;;;10.40;83.00;;;;;;5054140;28;20024;-16
2023/01/02 01:49:12;;;;;;;64.40;37.63;;;10.40;83.20;;;;;;5055150;28;20915;-16
2023/01/02 01:52:03;;;;;;;61.85;36.95;;;10.40;83.20;;;;;;5055698;28;20021;-16
2023/01/02 01:54:36;;;;;;;67.00;40.53;;;10.40;83.20;;;;;;5055254;28;20037;-15
2023/01/02 01:57:12;;;;;;;64.22;39.60;;;10.40;83.30;;;;;;5055165;28;20025;-15
2023/01/02 01:59:39;;;;;;;70.53;40.53;;;10.50;83.20;;;;;;5055576;28;20151;-16
2023/01/02 02:02:06;;;;;;;64.50;40.05;;;10.40;83.20;;;;;;5055491;28;20056;-13
2023/01/02 02:04:32;;;;;;;58.13;36.83;;;10.40;83.20;;;;;;5055655;28;20025;-14
2023/01/02 02:06:58;;;;;;;74.07;43.35;;;10.40;83.20;;;;;;5055176;28;20036;-12
2023/01/02 02:09:39;;;;;;;67.40;40.00;;;10.40;83.30;;;;;;5054909;28;20029;-16
2023/01/02 02:12:07;;;;;;;72.80;42.80;;;10.30;83.30;;;;;;5055388;28;20071;-14
2023/01/02 02:14:33;;;;;;;58.40;35.20;;;10.30;83.40;;;;;;5054871;28;20342;-14
2023/01/02 02:17:09;;;;;;;62.15;39.42;;;10.30;83.50;;;;;;5054642;28;20112;-12
2023/01/02 02:20:07;;;;;;;57.88;34.63;;;10.40;83.50;;;;;;5054848;28;20044;-16
2023/01/02 02:22:45;;;;;;;51.13;32.20;;;10.40;83.50;;;;;;5051522;28;20059;-15
2023/01/02 02:25:19;;;;;;;60.75;35.10;;;10.30;83.50;;;;;;5054820;28;20370;-14
2023/01/02 02:28:12;;;;;;;57.67;35.28;;;10.40;83.50;;;;;;5055242;28;20021;-16
2023/01/02 02:30:57;;;;;;;62.75;36.22;;;10.40;83.50;;;;;;5054987;28;20029;-14
2023/01/02 02:33:26;;;;;;;64.55;38.60;;;10.40;83.40;;;;;;5054607;28;20489;-15
2023/01/02 02:35:57;;;;;;;63.63;38.85;;;10.40;83.40;;;;;;5054577;28;20404;-14
2023/01/02 02:38:35;;;;;;;73.55;43.53;;;10.40;83.40;;;;;;5054631;28;20063;-16
2023/01/02 02:41:28;;;;;;;62.78;40.65;;;10.40;83.40;;;;;;5054554;28;20058;-16
2023/01/02 02:44:02;;;;;;;88.03;45.80;;;10.50;83.40;;;;;;5054401;28;20075;-16
2023/01/02 02:46:49;;;;;;;83.82;47.28;;;10.50;83.50;;;;;;5054686;28;20021;-16
2023/01/02 02:49:17;;;;;;;75.68;43.35;;;10.50;83.20;;;;;;5054771;28;20098;-16
2023/01/02 02:52:03;;;;;;;73.82;43.75;;;10.40;83.10;;;;;;5054191;28;20033;-16
2023/01/02 02:54:32;;;;;;;69.85;43.03;;;10.40;83.20;;;;;;5054043;28;20123;-15
2023/01/02 02:56:59;;;;;;;67.82;40.47;;;10.30;83.20;;;;;;5054165;28;20078;-16
2023/01/02 02:59:26;;;;;;;57.53;36.58;;;10.30;83.30;;;;;;5054116;28;20082;-16
2023/01/02 03:01:52;;;;;;;62.60;37.15;;;10.20;83.40;;;;;;5054389;28;20036;-15
2023/01/02 03:04:20;;;;;;;58.30;34.90;;;10.20;83.60;;;;;;5054020;28;20020;-15
2023/01/02 03:07:05;;;;;;;55.83;34.70;;;10.10;83.60;;;;;;5053971;28;20377;-16
2023/01/02 03:10:15;;;;;;;55.15;35.33;;;10.20;83.70;;;;;;5053807;28;20496;-15
2023/01/02 03:12:50;;;;;;;56.75;35.08;;;10.30;83.60;;;;;;5034667;28;20483;-14
2023/01/02 03:15:31;;;;;;;56.72;35.92;;;10.30;83.60;;;;;;5053701;28;20031;-13
2023/01/02 03:18:18;;;;;;;57.33;35.60;;;10.30;83.50;;;;;;5054199;28;20068;-15
2023/01/02 03:20:48;;;;;;;53.75;33.60;;;10.40;83.60;;;;;;5053721;28;20044;-13
2023/01/02 03:23:20;;;;;;;57.00;36.13;;;10.40;83.60;;;;;;5053922;28;20090;-12
2023/01/02 03:25:46;;;;;;;51.75;33.83;;;10.40;83.50;;;;;;5053849;28;20049;-15
2023/01/02 03:28:16;;;;;;;47.05;31.35;;;10.40;83.50;;;;;;5053846;28;20021;-16
2023/01/02 03:30:44;;;;;;;51.25;33.30;;;10.40;83.50;;;;;;5053522;28;20024;-16
2023/01/02 03:33:16;;;;;;;58.63;37.33;;;10.40;83.40;;;;;;5051888;28;20477;-16
2023/01/02 03:35:55;;;;;;;55.08;34.92;;;10.40;83.40;;;;;;5053373;28;20025;-14
2023/01/02 03:38:30;;;;;;;62.03;36.50;;;10.40;83.40;;;;;;5053504;28;20021;-12
2023/01/02 03:41:24;;;;;;;57.33;35.65;;;10.40;83.40;;;;;;5053432;28;20071;-13
2023/01/02 03:43:54;;;;;;;60.55;38.40;;;10.40;83.30;;;;;;5011700;28;20460;-15
2023/01/02 03:47:12;;;;;;;68.32;40.80;;;10.50;83.30;;;;;;5011518;28;20022;-13
2023/01/02 03:49:44;;;;;;;69.90;41.28;;;10.50;83.30;;;;;;4924297;29;20069;-16
2023/01/02 03:52:10;;;;;;;68.22;41.88;;;10.50;83.20;;;;;;4953302;29;20388;-16
2023/01/02 03:54:37;;;;;;;67.32;40.50;;;10.60;83.10;;;;;;4953066;29;20070;-16
2023/01/02 03:57:09;;;;;;;66.30;41.10;;;10.60;83.10;;;;;;4952624;29;20027;-16
2023/01/02 04:00:07;;;;;;;82.38;46.28;;;10.60;83.10;;;;;;4953098;29;20066;-15
2023/01/02 04:02:41;;;;;;;65.68;41.72;;;10.60;83.00;;;;;;4952365;28;20102;-16
2023/01/02 04:05:37;;;;;;;78.80;47.88;;;10.60;83.10;;;;;;4952637;29;20038;-11
2023/01/02 04:08:15;;;;;;;72.78;44.90;;;10.60;83.00;;;;;;4951783;29;20042;-15
2023/01/02 04:10:44;;;;;;;89.47;50.08;;;10.60;83.00;;;;;;4952680;29;20043;-16
2023/01/02 04:13:17;;;;;;;73.80;45.08;;;10.60;83.10;;;;;;4952338;29;20036;-16
2023/01/02 04:15:45;;;;;;;71.97;43.78;;;10.60;83.00;;;;;;4952722;29;20047;-16
2023/01/02 04:18:22;;;;;;;72.30;43.88;;;10.60;83.00;;;;;;4952899;29;20130;-12
2023/01/02 04:20:52;;;;;;;85.95;51.33;;;10.60;83.00;;;;;;4975307;28;20133;-16
2023/01/02 04:23:59;;;;;;;79.28;47.10;;;10.60;83.00;;;;;;4991280;28;20026;-16
2023/01/02 04:26:38;;;;;;;72.75;43.42;;;10.60;83.00;;;;;;4991218;28;20114;-16
2023/01/02 04:29:04;;;;;;;87.72;50.20;;;10.60;83.00;;;;;;4991126;28;20041;-15
2023/01/02 04:31:57;;;;;;;93.38;52.70;;;10.60;83.20;;;;;;4991114;28;20482;-16
2023/01/02 04:34:25;;;;;;;92.15;53.17;;;10.60;83.10;;;;;;4991685;28;20034;-17
2023/01/02 04:36:51;;;;;;;87.43;51.35;;;10.60;83.20;;;;;;4990765;28;20125;-11
2023/01/02 04:39:20;;;;;;;88.82;50.65;;;10.50;83.20;;;;;;4990973;28;20109;-15
2023/01/02 04:41:46;;;;;;;100.53;55.75;;;10.50;83.20;;;;;;4990977;28;20522;-15
2023/01/02 04:44:12;;;;;;;92.15;53.88;;;10.50;83.20;;;;;;4991000;28;20030;-15
2023/01/02 04:46:38;;;;;;;82.88;48.50;;;10.50;83.20;;;;;;4991327;28;20494;-16
2023/01/02 04:49:04;;;;;;;93.65;52.90;;;10.40;83.30;;;;;;4990881;28;20049;-16
2023/01/02 04:51:30;;;;;;;84.22;49.63;;;10.40;83.40;;;;;;4990965;28;20193;-15
2023/01/02 04:53:56;;;;;;;79.55;47.72;;;10.40;83.50;;;;;;4990835;28;20430;-16
2023/01/02 04:56:22;;;;;;;80.10;47.42;;;10.40;83.50;;;;;;4990902;28;20487;-17
2023/01/02 04:58:48;;;;;;;96.18;55.42;;;10.30;83.60;;;;;;4990705;28;20037;-17
2023/01/02 05:01:17;;;;;;;92.55;53.45;;;10.30;83.80;;;;;;4986718;28;20477;-15
2023/01/02 05:03:46;;;;;;;73.78;45.58;;;10.30;83.80;;;;;;5052191;28;20021;-16
2023/01/02 05:06:12;;;;;;;81.10;48.78;;;10.30;83.90;;;;;;5052087;28;20083;-13
2023/01/02 05:08:38;;;;;;;91.90;51.13;;;10.30;83.90;;;;;;5052075;28;20025;-16
2023/01/02 05:11:13;;;;;;;88.97;50.97;;;10.40;84.00;;;;;;5050590;28;20028;-16
2023/01/02 05:13:39;;;;;;;78.40;47.40;;;10.40;84.00;;;;;;5053095;28;20033;-16
2023/01/02 05:16:05;;;;;;;92.60;53.38;;;10.40;84.00;;;;;;5056344;28;20047;-17
2023/01/02 05:18:31;;;;;;;107.30;60.80;;;10.40;83.90;;;;;;5055851;28;20029;-15
2023/01/02 05:23:47;;;;;;;92.70;53.00;;;10.40;83.90;;;;;;5056020;28;20067;-16
2023/01/02 05:23:52;;;;;;;98.68;54.65;;;10.40;83.80;;;;;;5055825;28;20029;-14
2023/01/02 05:26:18;;;;;;;81.38;48.42;;;10.40;83.80;;;;;;5055991;28;20021;-17
2023/01/02 05:28:44;;;;;;;79.53;47.55;;;10.30;83.80;;;;;;5054616;28;20029;-15
2023/01/02 05:31:10;;;;;;;91.63;53.38;;;10.30;83.90;;;;;;5054195;28;20400;-13
2023/01/02 05:33:37;;;;;;;78.55;47.65;;;10.30;83.90;;;;;;5056010;28;20488;-17
2023/01/02 05:36:07;;;;;;;77.70;46.78;;;10.20;84.00;;;;;;5055374;28;20476;-14
2023/01/02 05:38:34;;;;;;;72.40;43.90;;;10.30;84.20;;;;;;5055500;28;20033;-16
2023/01/02 05:41:04;;;;;;;73.32;44.65;;;10.30;84.30;;;;;;5055665;28;20102;-16
2023/01/02 05:43:32;;;;;;;73.57;44.42;;;10.30;84.30;;;;;;5055805;28;20365;-16
2023/01/02 05:45:58;;;;;;;71.80;45.58;;;10.40;84.30;;;;;;5055667;28;20067;-16
2023/01/02 05:48:24;;;;;;;86.60;46.20;;;10.40;84.20;;;;;;5055685;28;20021;-15
2023/01/02 05:50:50;;;;;;;73.40;44.80;;;10.40;84.10;;;;;;5055459;28;20040;-15
2023/01/02 05:53:17;;;;;;;81.72;48.35;;;10.40;84.00;;;;;;5055282;28;20488;-13
2023/01/02 05:55:43;;;;;;;78.65;45.65;;;10.40;84.00;;;;;;5054049;28;20376;-16
2023/01/02 05:58:08;;;;;;;85.75;46.58;;;10.50;84.00;;;;;;5055153;28;20025;-16
2023/01/02 06:00:34;;;;;;;70.28;42.90;;;10.50;84.00;;;;;;5055529;28;20542;-16
2023/01/02 06:03:00;;;;;;;73.05;42.58;;;10.50;83.80;;;;;;5054940;28;20373;-16
2023/01/02 06:05:26;;;;;;;82.70;45.95;;;10.50;83.70;;;;;;5055365;28;20021;-16
2023/01/02 06:07:52;;;;;;;75.78;45.13;;;10.50;83.70;;;;;;5054932;28;20021;-16
2023/01/02 06:10:18;;;;;;;79.13;45.38;;;10.60;83.60;;;;;;5054892;28;20022;-16
2023/01/02 06:12:44;;;;;;;78.65;44.97;;;10.60;83.60;;;;;;5055277;28;20033;-16
2023/01/02 06:15:10;;;;;;;78.82;46.08;;;10.50;83.60;;;;;;5055085;28;20029;-14
2023/01/02 06:17:36;;;;;;;75.78;44.40;;;10.60;83.70;;;;;;5054665;28;20472;-16
2023/01/02 06:20:02;;;;;;;67.65;41.38;;;10.60;83.70;;;;;;5055367;28;20108;-15
2023/01/02 06:22:29;;;;;;;76.70;44.78;;;10.60;83.70;;;;;;5054768;28;20499;-16
2023/01/02 06:24:55;;;;;;;72.18;42.25;;;10.60;83.70;;;;;;5054056;28;20473;-15
2023/01/02 06:27:21;;;;;;;85.03;48.88;;;10.60;83.70;;;;;;5054388;28;20021;-16
2023/01/02 06:29:47;;;;;;;91.30;49.70;;;10.60;83.70;;;;;;5054532;28;20082;-15
2023/01/02 06:32:12;;;;;;;96.47;51.85;;;10.60;83.70;;;;;;5054588;28;20029;-16
2023/01/02 06:34:38;;;;;;;87.07;49.38;;;10.50;83.60;;;;;;5054827;28;20033;-16
2023/01/02 06:37:04;;;;;;;87.10;46.15;;;10.50;83.70;;;;;;5054065;28;20396;-14
2023/01/02 06:39:32;;;;;;;70.53;42.08;;;10.40;83.70;;;;;;5054459;28;20021;-15
2023/01/02 06:41:57;;;;;;;69.30;41.63;;;10.40;83.90;;;;;;5054735;28;20049;-14
2023/01/02 06:44:24;;;;;;;58.17;36.47;;;10.40;84.00;;;;;;5054906;28;20420;-17
2023/01/02 06:46:50;;;;;;;56.58;35.95;;;10.40;84.10;;;;;;5054165;28;20029;-15
2023/01/02 06:49:16;;;;;;;65.30;40.30;;;10.40;84.10;;;;;;5054813;28;20035;-16
2023/01/02 06:51:41;;;;;;;62.13;39.42;;;10.50;84.10;;;;;;5054302;28;20032;-17
2023/01/02 06:54:07;;;;;;;67.55;41.75;;;10.50;84.10;;;;;;5054433;28;20036;-17
2023/01/02 06:56:33;;;;;;;69.75;40.03;;;10.50;84.20;;;;;;5054397;28;20583;-14
2023/01/02 06:58:59;;;;;;;69.70;40.95;;;10.60;84.10;;;;;;5053894;28;20092;-17
2023/01/02 07:01:25;;;;;;;63.70;38.67;;;10.50;84.00;;;;;;5054027;28;20036;-16
2023/01/02 07:03:51;;;;;;;92.47;50.28;;;10.50;84.10;;;;;;5054228;28;20104;-16
2023/01/02 07:06:20;;;;;;;79.50;44.58;;;10.50;84.10;;;;;;5053942;28;20025;-16
2023/01/02 07:08:46;;;;;;;70.40;41.03;;;10.60;84.00;;;;;;5053897;28;20032;-16
2023/01/02 07:11:16;;;;;;;94.68;53.00;;;10.50;84.00;;;;;;5054191;28;20036;-17
2023/01/02 07:13:43;;;;;;;108.78;57.83;;;10.50;84.00;;;;;;5053930;28;20021;-17
2023/01/02 07:16:12;;;;;;;93.93;52.95;;;10.50;84.00;;;;;;5054409;28;20028;-16
2023/01/02 07:18:38;;;;;;;97.90;52.35;;;10.40;84.00;;;;;;5053642;28;20045;-15
2023/01/02 07:21:06;;;;;;;89.10;52.00;;;10.40;84.00;;;;;;5053473;28;20025;-16
2023/01/02 07:23:32;;;;;;;84.10;48.17;;;10.40;84.00;;;;;;5053867;28;20033;-15
2023/01/02 07:26:00;;;;;;;67.32;40.58;;;10.30;84.00;;;;;;5053816;28;20029;-15
2023/01/02 07:28:28;;;;;;;63.13;39.63;;;10.20;84.10;;;;;;5053570;28;20025;-14
2023/01/02 07:30:58;;;;;;;64.80;39.25;;;10.20;84.30;;;;;;5053286;28;20024;-15
2023/01/02 07:33:26;;;;;;;77.88;46.00;;;10.20;84.40;;;;;;5053609;28;20025;-16
2023/01/02 07:35:59;;;;;;;76.78;44.53;;;10.20;84.60;;;;;;5053449;28;20088;-14
2023/01/02 07:38:26;;;;;;;80.55;45.42;;;10.20;84.50;;;;;;5052608;28;20036;-16
2023/01/02 07:40:52;;;;;;;58.20;35.65;;;10.20;84.50;;;;;;5053055;28;20090;-16
2023/01/02 07:43:18;;;;;;;83.25;45.97;;;10.20;84.60;;;;;;5053278;28;20029;-16
2023/01/02 07:45:44;;;;;;;65.63;37.63;;;10.20;84.70;;;;;;5053450;28;20143;-14
2023/01/02 07:48:10;;;;;;;68.68;38.22;;;10.20;84.70;;;;;;5053681;28;20494;-16
2023/01/02 07:50:36;;;;;;;58.78;34.85;;;10.20;84.70;;;;;;5052002;28;20546;-17
2023/01/02 07:53:02;;;;;;;70.43;41.05;;;10.30;84.70;;;;;;5052674;28;20360;-17
2023/01/02 07:55:28;;;;;;;71.70;40.53;;;10.30;84.70;;;;;;5053241;28;20025;-15
2023/01/02 07:57:54;;;;;;;63.70;35.38;;;10.30;84.60;;;;;;5052847;28;20051;-15
2023/01/02 08:00:20;;;;;;;66.07;38.65;;;10.30;84.60;;;;;;5053222;28;20032;-16
2023/01/02 08:02:48;;;;;;;73.18;42.50;;;10.30;84.60;;;;;;5052936;28;20021;-16
2023/01/02 08:05:15;;;;;;;61.10;34.88;;;10.30;84.70;;;;;;5052684;28;20047;-16
2023/01/02 08:07:43;;;;;;;66.97;38.65;;;10.30;84.60;;;;;;5052799;28;20017;-16
2023/01/02 08:10:10;;;;;;;57.75;35.90;;;10.30;84.60;;;;;;5052734;28;20457;-16
2023/01/02 08:12:36;;;;;;;68.40;41.17;;;10.30;84.60;;;;;;5053000;28;20025;-16
2023/01/02 08:15:03;;;;;;;79.35;47.38;;;10.30;84.60;;;;;;5052535;28;20025;-16
2023/01/02 08:17:30;;;;;;;71.32;40.85;;;10.30;84.60;;;;;;5052813;28;20033;-14
2023/01/02 08:19:56;;;;;;;68.50;40.47;;;10.30;84.50;;;;;;5052861;28;20399;-17
2023/01/02 08:22:23;;;;;;;71.03;41.20;;;10.30;84.50;;;;;;5052571;28;20074;-16
2023/01/02 08:24:49;;;;;;;65.75;39.08;;;10.40;84.60;;;;;;5052311;28;20071;-15
2023/01/02 08:27:15;;;;;;;79.10;43.50;;;10.40;84.60;;;;;;5052504;28;20021;-16
2023/01/02 08:29:41;;;;;;;88.40;48.22;;;10.40;84.60;;;;;;5052478;28;20021;-16
2023/01/02 08:32:07;;;;;;;89.97;47.40;;;10.40;84.50;;;;;;5052464;28;20028;-16
2023/01/02 08:34:34;;;;;;;81.40;45.05;;;10.30;84.40;;;;;;5052441;28;20024;-16
2023/01/02 08:37:00;;;;;;;84.55;45.75;;;10.30;84.30;;;;;;5051886;28;20056;-14
2023/01/02 08:39:26;;;;;;;89.35;45.05;;;10.30;84.50;;;;;;5052249;28;20025;-15
2023/01/02 08:41:52;;;;;;;76.43;40.53;;;10.20;84.50;;;;;;5052580;28;20029;-16
2023/01/02 08:44:18;;;;;;;82.20;45.00;;;10.20;84.60;;;;;;5052812;28;20052;-16
2023/01/02 08:46:44;;;;;;;86.65;41.45;;;10.20;84.60;;;;;;5052457;28;20063;-16
2023/01/02 08:49:11;;;;;;;79.45;41.85;;;10.20;84.70;;;;;;5051808;28;20112;-16
2023/01/02 08:51:37;;;;;;;69.85;38.25;;;10.20;84.80;;;;;;5052225;28;20543;-17
2023/01/02 08:54:02;;;;;;;84.85;41.55;;;10.10;84.80;;;;;;5052254;28;20048;-14
2023/01/02 08:56:30;;;;;;;87.38;42.58;;;10.10;84.90;;;;;;5052371;28;20017;-17
2023/01/02 08:59:08;;;;;;;81.30;40.05;;;10.20;85.00;;;;;;5051999;28;20492;-16
2023/01/02 09:01:35;;;;;;;83.28;41.25;;;10.20;85.00;;;;;;5052251;28;20027;-16
2023/01/02 09:04:01;;;;;;;87.00;43.80;;;10.20;85.00;;;;;;5052005;28;20021;-16
2023/01/02 09:06:30;;;;;;;80.55;42.33;;;10.20;85.00;;;;;;5052248;28;20033;-16
2023/01/02 09:08:58;;;;;;;84.95;44.53;;;10.30;85.00;;;;;;5051822;28;20357;-17
2023/01/02 09:11:27;;;;;;;74.22;38.63;;;10.30;85.00;;;;;;5052407;28;20025;-16
2023/01/02 09:13:54;;;;;;;86.13;42.47;;;10.30;85.00;;;;;;5052443;28;20029;-16
2023/01/02 09:16:21;;;;;;;77.07;40.58;;;10.30;85.10;;;;;;5050845;28;20029;-14
2023/01/02 09:18:47;;;;;;;86.80;42.85;;;10.40;85.10;;;;;;5052211;28;20063;-21
2023/01/02 09:21:13;;;;;;;86.22;42.03;;;10.40;85.00;;;;;;5052089;28;20033;-15
2023/01/02 09:23:39;;;;;;;87.40;43.83;;;10.40;85.00;;;;;;5051914;28;20057;-16
2023/01/02 09:26:06;;;;;;;92.18;43.33;;;10.40;84.90;;;;;;5052292;28;20028;-16
2023/01/02 09:28:34;;;;;;;87.38;40.17;;;10.40;84.80;;;;;;5051950;28;20104;-16
2023/01/02 09:31:08;;;;;;;88.20;41.72;;;10.40;84.80;;;;;;5051989;28;20040;-17
2023/01/02 09:33:34;;;;;;;86.45;40.10;;;10.50;84.80;;;;;;5052245;28;20075;-15
2023/01/02 09:36:03;;;;;;;84.80;40.42;;;10.40;84.80;;;;;;5051540;28;20063;-15
2023/01/02 09:38:29;;;;;;;91.50;44.22;;;10.50;84.80;;;;;;5051804;28;20036;-15
2023/01/02 09:40:57;;;;;;;75.60;36.60;;;10.40;84.80;;;;;;5051944;28;20078;-16
2023/01/02 09:43:31;;;;;;;88.85;42.28;;;10.40;84.90;;;;;;5052083;28;20033;-14
2023/01/02 09:45:59;;;;;;;73.78;35.60;;;10.50;84.90;;;;;;5052145;28;20103;-15
2023/01/02 09:48:30;;;;;;;82.20;40.67;;;10.50;85.00;;;;;;5050449;28;20384;-16
2023/01/02 09:50:56;;;;;;;86.13;40.83;;;10.60;85.10;;;;;;5051779;28;20032;-17
2023/01/02 09:53:22;;;;;;;79.47;37.88;;;10.60;85.30;;;;;;5051588;28;20100;-16
2023/01/02 09:55:51;;;;;;;62.50;31.77;;;10.70;85.20;;;;;;5051905;28;20100;-16
2023/01/02 09:58:47;;;;;;;65.05;32.97;;;10.70;85.10;;;;;;5051798;28;20029;-15
2023/01/02 10:01:28;;;;;;;74.20;34.97;;;10.80;85.00;;;;;;5053351;28;20028;-16
2023/01/02 10:04:16;;;;;;;85.22;38.22;;;10.90;84.90;;;;;;5055878;28;20078;-16
2023/01/02 10:06:57;;;;;;;79.10;33.55;;;10.90;84.60;;;;;;5055253;28;20036;-17
2023/01/02 10:09:32;;;;;;;87.13;34.38;;;10.90;84.60;;;;;;5054998;28;20032;-16
2023/01/02 10:12:28;;;;;;;62.28;30.38;;;10.90;84.60;;;;;;5055386;28;20029;-17
2023/01/02 10:15:04;;;;;;;86.75;41.70;;;11.00;84.50;;;;;;5051006;28;20090;-17
2023/01/02 10:17:36;;;;;;;75.07;34.88;;;11.00;84.40;;;;;;5055221;28;20420;-16
2023/01/02 10:20:26;;;;;;;65.35;33.60;;;11.10;84.30;;;;;;5054875;28;20074;-16
2023/01/02 10:23:03;;;;;;;58.92;29.48;;;11.10;84.30;;;;;;5054598;28;20033;-16
2023/01/02 10:25:51;;;;;;;57.10;30.45;;;11.20;84.40;;;;;;5054875;28;20052;-16
2023/01/02 10:28:29;;;;;;;57.28;29.42;;;11.30;84.30;;;;;;5055077;28;20029;-16
2023/01/02 10:31:06;;;;;;;64.38;32.15;;;11.40;84.30;;;;;;5054500;28;20475;-16
2023/01/02 10:33:57;;;;;;;70.93;33.67;;;11.40;84.00;;;;;;5054972;28;20036;-13
2023/01/02 10:36:27;;;;;;;68.20;32.65;;;11.50;83.70;;;;;;5054601;28;20080;-14
2023/01/02 10:39:08;;;;;;;72.30;35.65;;;11.60;83.70;;;;;;5054226;28;20485;-14
2023/01/02 10:41:35;;;;;;;62.67;30.17;;;11.60;83.50;;;;;;5054756;28;20037;-16
2023/01/02 10:44:18;;;;;;;62.25;30.52;;;11.60;83.50;;;;;;5054397;28;20460;-14
2023/01/02 10:46:44;;;;;;;70.25;34.95;;;11.70;83.30;;;;;;5054426;28;20025;-16
2023/01/02 10:49:11;;;;;;;56.58;27.80;;;11.80;82.90;;;;;;5054128;28;20047;-16
2023/01/02 10:51:47;;;;;;;67.82;30.33;;;11.70;83.10;;;;;;5054227;28;20115;-16
2023/01/02 10:54:13;;;;;;;70.60;32.65;;;11.70;83.10;;;;;;5054413;28;20013;-16
2023/01/02 10:56:42;;;;;;;77.75;34.08;;;11.70;83.10;;;;;;5054337;28;20025;-14
2023/01/02 10:59:26;;;;;;;72.07;30.48;;;11.70;82.80;;;;;;5053951;28;20021;-16
2023/01/02 11:01:58;;;;;;;62.88;27.90;;;11.70;82.90;;;;;;5054846;28;20021;-16
2023/01/02 11:04:29;;;;;;;65.55;29.40;;;11.60;82.70;;;;;;5054262;28;20021;-17
2023/01/02 11:06:59;;;;;;;69.05;28.85;;;11.50;82.70;;;;;;5054115;28;20052;-15
2023/01/02 11:09:30;;;;;;;56.28;26.92;;;11.40;82.90;;;;;;5053867;28;20032;-15
2023/01/02 11:12:12;;;;;;;67.10;27.58;;;11.40;83.00;;;;;;5054158;28;20032;-14
2023/01/02 11:14:38;;;;;;;75.25;30.85;;;11.40;83.10;;;;;;5053878;28;20427;-14
2023/01/02 11:17:16;;;;;;;57.28;26.35;;;11.40;83.20;;;;;;5053498;28;20033;-13
2023/01/02 11:19:59;;;;;;;73.05;29.58;;;11.40;83.30;;;;;;5054007;28;20036;-12
2023/01/02 11:22:35;;;;;;;77.03;32.90;;;11.40;83.50;;;;;;5053774;28;20021;-14
2023/01/02 11:25:06;;;;;;;67.95;29.65;;;11.40;83.30;;;;;;5053493;28;20090;-14
2023/01/02 11:27:35;;;;;;;72.90;31.67;;;11.40;83.30;;;;;;5053940;28;20029;-15
2023/01/02 11:30:04;;;;;;;54.42;25.75;;;11.40;83.40;;;;;;5052624;28;20028;-17
2023/01/02 11:32:39;;;;;;;59.08;27.10;;;11.50;83.40;;;;;;5053367;28;20482;-16
2023/01/02 11:35:32;;;;;;;67.57;30.58;;;11.50;83.40;;;;;;5053475;28;20475;-16
2023/01/02 11:38:01;;;;;;;61.55;27.70;;;11.50;83.30;;;;;;5053237;28;20052;-15
2023/01/02 11:40:30;;;;;;;61.63;28.58;;;11.60;83.30;;;;;;5053322;28;20362;-16
2023/01/02 11:45:47;;;;;;;50.75;24.45;;;11.70;83.20;;;;;;5053624;28;20070;-16
2023/01/02 11:48:20;;;;;;;55.15;25.33;;;11.80;83.10;;;;;;5053399;28;20025;-14
2023/01/02 11:50:47;;;;;;;64.70;29.05;;;11.90;82.90;;;;;;5053238;28;20388;-14
2023/01/02 11:53:13;;;;;;;63.05;28.65;;;11.90;83.00;;;;;;5053157;28;20025;-14
2023/01/02 11:55:51;;;;;;;60.42;27.58;;;12.00;82.80;;;;;;5053268;28;20029;-13
2023/01/02 11:58:30;;;;;;;57.65;27.65;;;12.00;82.50;;;;;;5053197;28;20107;-14
2023/01/02 12:01:10;;;;;;;57.97;26.23;;;12.10;82.30;;;;;;5053115;28;20029;-18
2023/01/02 12:03:37;;;;;;;57.20;27.23;;;12.10;82.20;;;;;;5052977;28;20071;-14
2023/01/02 12:06:31;;;;;;;58.55;26.92;;;12.10;82.20;;;;;;5051651;28;20036;-16
2023/01/02 12:09:05;;;;;;;60.00;28.50;;;12.10;82.00;;;;;;5052507;28;20033;-16
2023/01/02 12:11:52;;;;;;;;;;;12.10;82.00;;;;;;5053725;28;20484;-17
2023/01/02 12:14:20;;;;;;;66.00;28.42;;;12.10;82.10;;;;;;5053049;28;19919;-16
2023/01/02 12:17:01;;;;;;;56.38;27.45;;;12.10;82.10;;;;;;5052737;28;20384;-14
2023/01/02 12:19:53;;;;;;;75.40;31.88;;;12.10;81.80;;;;;;5053170;28;20171;-14
2023/01/02 12:22:51;;;;;;;62.50;27.80;;;12.00;81.80;;;;;;5052799;28;20174;-16
2023/01/02 12:25:35;;;;;;;82.88;33.25;;;11.90;82.00;;;;;;5010582;28;20117;-17
2023/01/02 12:28:29;;;;;;;74.28;32.95;;;11.90;82.10;;;;;;5010897;28;20105;-15
2023/01/02 12:31:13;;;;;;;71.13;28.00;;;11.90;82.20;;;;;;5010822;28;20084;-14
2023/01/02 12:33:39;;;;;;;87.50;36.63;;;11.90;82.20;;;;;;4994272;28;20030;-15
2023/01/02 12:36:10;;;;;;;59.10;28.33;;;11.90;82.30;;;;;;5010712;28;20042;-14
2023/01/02 12:39:00;;;;;;;71.00;29.05;;;11.90;82.30;;;;;;5010705;28;20041;-16
2023/01/02 12:41:38;;;;;;;88.57;36.25;;;11.90;82.30;;;;;;5011229;28;20185;-14
2023/01/02 12:44:04;;;;;;;85.00;37.40;;;12.00;82.40;;;;;;5010662;28;20036;-11
2023/01/02 12:47:14;;;;;;;85.45;35.13;;;12.00;82.30;;;;;;5011189;28;20034;-15
2023/01/02 12:50:03;;;;;;;75.30;33.35;;;12.00;81.90;;;;;;4988554;28;20563;-15
2023/01/02 12:53:07;;;;;;;64.30;27.58;;;11.90;82.00;;;;;;5010427;28;20068;-15